createdAt,value
2023-04-11T00:00:36.974Z,26.41
2023-04-11T00:03:07.249Z,26.39
2023-04-11T00:05:37.073Z,26.30
2023-04-11T00:08:05.238Z,26.34
2023-04-11T00:10:33.471Z,26.42
2023-04-11T00:13:01.502Z,26.41
2023-04-11T00:15:29.503Z,26.42
2023-04-11T00:17:58.597Z,26.41
2023-04-11T00:20:26.701Z,26.40
2023-04-11T00:22:58.362Z,26.41
2023-04-11T00:25:27.094Z,26.41
2023-04-11T00:27:55.405Z,26.40
2023-04-11T00:30:23.740Z,26.38
2023-04-11T00:32:51.758Z,26.35
2023-04-11T00:35:20.020Z,26.36
2023-04-11T00:37:49.482Z,26.36
2023-04-11T00:40:19.174Z,26.38
2023-04-11T00:42:47.162Z,26.23
2023-04-11T00:45:15.541Z,26.35
2023-04-11T00:47:43.630Z,26.38
2023-04-11T00:50:14.028Z,26.38
2023-04-11T00:52:43.834Z,26.36
2023-04-11T00:55:11.895Z,26.38
2023-04-11T00:57:42.843Z,26.36
2023-04-11T01:00:11.989Z,26.38
2023-04-11T01:02:43.641Z,26.34
2023-04-11T01:05:13.184Z,26.32
2023-04-11T01:07:43.370Z,26.32
2023-04-11T01:10:12.535Z,26.29
2023-04-11T01:12:42.775Z,26.28
2023-04-11T01:15:12.276Z,26.14
2023-04-11T01:17:41.816Z,26.26
2023-04-11T01:20:13.024Z,26.27
2023-04-11T01:22:44.063Z,26.23
2023-04-11T01:25:15.650Z,26.27
2023-04-11T01:27:45.011Z,26.25
2023-04-11T01:30:13.594Z,26.25
2023-04-11T01:32:41.774Z,25.99
2023-04-11T01:35:11.378Z,26.22
2023-04-11T01:37:39.776Z,26.19
2023-04-11T01:40:09.902Z,25.98
2023-04-11T01:42:39.963Z,26.17
2023-04-11T01:45:09.627Z,26.16
2023-04-11T01:47:37.858Z,26.15
2023-04-11T01:50:07.389Z,26.15
2023-04-11T01:52:35.343Z,26.11
2023-04-11T01:55:04.257Z,26.09
2023-04-11T01:57:33.150Z,26.09
2023-04-11T02:00:02.584Z,26.10
2023-04-11T02:02:31.025Z,26.13
2023-04-11T02:04:59.004Z,26.15
2023-04-11T02:07:27.482Z,26.16
2023-04-11T02:09:55.484Z,26.18
2023-04-11T02:12:23.531Z,26.21
2023-04-11T02:14:51.580Z,26.22
2023-04-11T02:17:22.335Z,26.24
2023-04-11T02:19:51.727Z,26.26
2023-04-11T02:22:19.657Z,26.28
2023-04-11T02:24:47.845Z,26.30
2023-04-11T02:27:15.727Z,26.31
2023-04-11T02:29:43.767Z,26.33
2023-04-11T02:32:11.880Z,26.34
2023-04-11T02:34:41.409Z,26.35
2023-04-11T02:37:09.515Z,26.40
2023-04-11T02:39:37.428Z,26.38
2023-04-11T02:42:05.486Z,26.40
2023-04-11T02:44:33.707Z,26.41
2023-04-11T02:47:02.359Z,26.42
2023-04-11T02:49:31.218Z,26.41
2023-04-11T02:52:01.498Z,26.43
2023-04-11T02:54:29.523Z,26.44
2023-04-11T02:57:02.149Z,26.44
2023-04-11T02:59:30.629Z,26.46
2023-04-11T03:02:00.847Z,26.46
2023-04-11T03:04:29.697Z,26.46
2023-04-11T03:07:08.439Z,26.48
2023-04-11T03:09:36.723Z,26.48
2023-04-11T03:12:04.920Z,26.47
2023-04-11T03:14:33.863Z,26.48
2023-04-11T03:17:01.770Z,26.48
2023-04-11T03:19:33.323Z,26.48
2023-04-11T03:22:02.991Z,26.43
2023-04-11T03:24:32.424Z,26.43
2023-04-11T03:27:01.442Z,26.38
2023-04-11T03:29:29.817Z,26.39
2023-04-11T03:32:08.999Z,26.34
2023-04-11T03:34:38.688Z,26.34
2023-04-11T03:37:09.055Z,26.33
2023-04-11T03:39:40.473Z,26.32
2023-04-11T03:42:08.559Z,26.29
2023-04-11T03:44:36.641Z,26.27
2023-04-11T03:47:04.947Z,26.26
2023-04-11T03:49:39.546Z,26.23
2023-04-11T03:52:09.769Z,26.24
2023-04-11T03:54:38.623Z,26.22
2023-04-11T03:57:11.799Z,26.16
2023-04-11T03:59:40.366Z,26.17
2023-04-11T04:02:10.756Z,26.14
2023-04-11T04:04:48.618Z,26.13
2023-04-11T04:07:24.126Z,26.10
2023-04-11T04:09:56.830Z,26.03
2023-04-11T04:12:26.987Z,26.09
2023-04-11T04:15:08.299Z,26.07
2023-04-11T04:17:37.044Z,26.07
2023-04-11T04:20:11.351Z,25.98
2023-04-11T04:22:41.217Z,25.63
2023-04-11T04:25:12.675Z,26.04
2023-04-11T04:27:44.297Z,26.07
2023-04-11T04:30:15.800Z,26.08
2023-04-11T04:33:12.148Z,26.11
2023-04-11T04:35:43.556Z,26.14
2023-04-11T04:38:17.934Z,26.18
2023-04-11T04:40:54.719Z,26.22
2023-04-11T04:43:27.399Z,26.25
2023-04-11T04:46:18.285Z,26.28
2023-04-11T04:48:50.686Z,26.30
2023-04-11T04:51:19.123Z,26.34
2023-04-11T04:53:47.792Z,26.22
2023-04-11T04:56:16.351Z,26.40
2023-04-11T04:58:48.436Z,26.43
2023-04-11T05:01:18.355Z,26.36
2023-04-11T05:03:50.878Z,26.50
2023-04-11T05:06:29.299Z,26.54
2023-04-11T05:08:58.657Z,26.56
2023-04-11T05:11:27.511Z,26.61
2023-04-11T05:13:57.152Z,26.64
2023-04-11T05:16:25.894Z,26.65
2023-04-11T05:18:54.253Z,26.61
2023-04-11T05:21:22.344Z,26.67
2023-04-11T05:23:52.997Z,26.69
2023-04-11T05:26:21.019Z,26.70
2023-04-11T05:28:49.065Z,26.63
2023-04-11T05:31:22.561Z,26.75
2023-04-11T05:33:50.659Z,26.77
2023-04-11T05:36:18.887Z,26.82
2023-04-11T05:38:47.313Z,26.66
2023-04-11T05:41:15.494Z,26.91
2023-04-11T05:43:43.683Z,26.94
2023-04-11T05:46:12.833Z,26.97
2023-04-11T05:48:42.512Z,27.01
2023-04-11T05:51:10.596Z,27.02
2023-04-11T05:53:38.715Z,27.06
2023-04-11T05:56:07.428Z,27.09
2023-04-11T05:58:37.071Z,27.13
2023-04-11T06:01:07.353Z,27.15
2023-04-11T06:03:35.649Z,27.18
2023-04-11T06:06:05.607Z,27.20
2023-04-11T06:08:34.383Z,27.23
2023-04-11T06:11:02.337Z,27.25
2023-04-11T06:13:30.341Z,27.25
2023-04-11T06:15:58.364Z,27.26
2023-04-11T06:18:26.407Z,27.28
2023-04-11T06:20:54.869Z,27.33
2023-04-11T06:23:24.316Z,27.36
2023-04-11T06:25:53.089Z,27.40
2023-04-11T06:28:21.138Z,27.41
2023-04-11T06:30:49.218Z,27.46
2023-04-11T06:33:17.402Z,27.47
2023-04-11T06:35:45.410Z,27.48
2023-04-11T06:38:13.408Z,27.49
2023-04-11T06:40:42.727Z,27.50
2023-04-11T06:43:11.274Z,27.56
2023-04-11T06:45:39.338Z,27.57
2023-04-11T06:48:07.690Z,27.60
2023-04-11T06:50:39.088Z,27.63
2023-04-11T06:53:07.100Z,27.68
2023-04-11T06:55:34.978Z,27.71
2023-04-11T06:58:04.350Z,27.77
2023-04-11T07:00:32.550Z,27.75
2023-04-11T07:03:01.128Z,27.88
2023-04-11T07:05:29.230Z,27.93
2023-04-11T07:07:57.363Z,27.95
2023-04-11T07:10:26.013Z,28.01
2023-04-11T07:12:53.948Z,28.05
2023-04-11T07:15:23.913Z,28.09
2023-04-11T07:17:52.824Z,28.12
2023-04-11T07:20:21.165Z,28.16
2023-04-11T07:22:49.073Z,28.19
2023-04-11T07:25:17.155Z,28.24
2023-04-11T07:27:46.467Z,28.25
2023-04-11T07:30:15.425Z,28.27
2023-04-11T07:32:44.892Z,28.30
2023-04-11T07:35:13.099Z,28.31
2023-04-11T07:37:42.431Z,28.33
2023-04-11T07:40:13.838Z,28.31
2023-04-11T07:42:42.182Z,28.36
2023-04-11T07:45:10.471Z,28.39
2023-04-11T07:47:38.561Z,28.41
2023-04-11T07:50:08.460Z,28.45
2023-04-11T07:52:36.476Z,28.49
2023-04-11T07:55:05.258Z,28.48
2023-04-11T07:57:33.393Z,28.47
2023-04-11T08:00:01.921Z,28.47
2023-04-11T08:02:40.051Z,28.48
2023-04-11T08:05:10.560Z,28.50
2023-04-11T08:07:38.526Z,28.50
2023-04-11T08:10:07.824Z,28.51
2023-04-11T08:12:35.770Z,28.50
2023-04-11T08:15:03.803Z,28.52
2023-04-11T08:17:37.741Z,28.53
2023-04-11T08:20:09.064Z,28.53
2023-04-11T08:22:39.051Z,28.52
2023-04-11T08:25:09.719Z,28.57
2023-04-11T08:27:37.735Z,28.58
2023-04-11T08:30:08.427Z,28.62
2023-04-11T08:32:36.633Z,28.64
2023-04-11T08:35:05.135Z,28.64
2023-04-11T08:37:33.243Z,28.67
2023-04-11T08:40:06.668Z,28.66
2023-04-11T08:42:36.500Z,28.68
2023-04-11T08:45:08.874Z,28.67
2023-04-11T08:47:37.489Z,28.30
2023-04-11T08:50:05.897Z,28.69
2023-04-11T08:52:35.260Z,28.71
2023-04-11T08:55:04.966Z,28.66
2023-04-11T08:57:33.035Z,28.72
2023-04-11T09:00:14.358Z,28.74
2023-04-11T09:02:59.675Z,28.78
2023-04-11T09:05:29.758Z,28.75
2023-04-11T09:07:59.028Z,28.82
2023-04-11T09:10:29.166Z,28.83
2023-04-11T09:12:57.741Z,28.82
2023-04-11T09:15:27.633Z,28.83
2023-04-11T09:18:00.382Z,28.82
2023-04-11T09:20:30.337Z,28.85
2023-04-11T09:22:59.931Z,28.85
2023-04-11T09:25:29.760Z,28.87
2023-04-11T09:28:11.620Z,28.81
2023-04-11T09:30:39.942Z,28.85
2023-04-11T09:33:28.692Z,28.82
2023-04-11T09:35:57.759Z,28.85
2023-04-11T09:38:30.813Z,28.78
2023-04-11T09:41:01.669Z,28.85
2023-04-11T09:43:49.060Z,28.81
2023-04-11T09:46:18.760Z,28.80
2023-04-11T09:48:47.290Z,28.75
2023-04-11T09:51:28.105Z,28.75
2023-04-11T09:54:04.650Z,28.74
2023-04-11T09:56:35.578Z,28.73
2023-04-11T09:59:05.232Z,28.68
2023-04-11T10:01:33.646Z,28.67
2023-04-11T10:04:02.021Z,28.66
2023-04-11T10:06:34.047Z,28.58
2023-04-11T10:09:11.158Z,28.62
2023-04-11T10:11:43.952Z,28.56
2023-04-11T10:14:43.163Z,28.56
2023-04-11T10:17:20.634Z,28.53
2023-04-11T10:19:51.594Z,28.49
2023-04-11T10:22:56.019Z,28.47
2023-04-11T10:25:24.918Z,28.20
2023-04-11T10:28:00.612Z,28.41
2023-04-11T10:31:00.021Z,28.37
2023-04-11T10:33:28.122Z,28.31
2023-04-11T10:36:03.180Z,28.30
2023-04-11T10:38:48.291Z,28.29
2023-04-11T10:41:21.037Z,28.25
2023-04-11T10:43:51.120Z,28.23
2023-04-11T10:46:21.711Z,28.20
2023-04-11T10:49:00.612Z,28.16
2023-04-11T10:51:29.776Z,28.12
2023-04-11T10:53:59.752Z,28.05
2023-04-11T10:56:55.026Z,28.07
2023-04-11T11:00:13.927Z,28.02
2023-04-11T11:02:42.687Z,27.96
2023-04-11T11:05:20.503Z,27.94
2023-04-11T11:07:53.519Z,27.70
2023-04-11T11:10:40.719Z,27.91
2023-04-11T11:13:09.599Z,27.87
2023-04-11T11:15:39.756Z,27.85
2023-04-11T11:18:09.997Z,27.81
2023-04-11T11:20:38.723Z,27.83
2023-04-11T11:23:08.237Z,27.64
2023-04-11T11:25:36.666Z,27.65
2023-04-11T11:28:07.297Z,27.84
2023-04-11T11:30:35.526Z,27.83
2023-04-11T11:33:18.921Z,27.78
2023-04-11T11:35:53.922Z,27.81
2023-04-11T11:38:23.608Z,27.79
2023-04-11T11:40:52.350Z,27.81
2023-04-11T11:43:20.612Z,27.78
2023-04-11T11:45:48.861Z,27.73
2023-04-11T11:48:25.780Z,27.55
2023-04-11T11:50:58.403Z,27.67
2023-04-11T11:53:26.900Z,27.66
2023-04-11T11:55:55.228Z,27.62
2023-04-11T11:58:23.259Z,27.59
2023-04-11T12:00:52.764Z,27.56
2023-04-11T12:03:25.154Z,27.40
2023-04-11T12:05:58.456Z,27.51
2023-04-11T12:08:27.262Z,27.47
2023-04-11T12:10:55.164Z,27.44
2023-04-11T12:13:27.071Z,27.39
2023-04-11T12:15:56.879Z,27.40
2023-04-11T12:18:27.498Z,27.42
2023-04-11T12:20:56.147Z,27.24
2023-04-11T12:23:24.576Z,27.42
2023-04-11T12:25:52.524Z,27.41
2023-04-11T12:28:20.684Z,27.43
2023-04-11T12:30:48.743Z,27.43
2023-04-11T12:33:17.465Z,27.37
2023-04-11T12:35:46.796Z,27.42
2023-04-11T12:38:17.501Z,27.40
2023-04-11T12:40:46.622Z,27.41
2023-04-11T12:43:14.629Z,27.33
2023-04-11T12:45:42.660Z,26.89
2023-04-11T12:48:10.690Z,27.35
2023-04-11T12:50:38.886Z,27.36
2023-04-11T12:53:08.228Z,27.35
2023-04-11T12:55:36.308Z,27.33
2023-04-11T12:58:04.339Z,27.29
2023-04-11T13:00:32.307Z,27.28
2023-04-11T13:03:00.991Z,27.26
2023-04-11T13:05:29.375Z,27.24
2023-04-11T13:07:57.394Z,27.22
2023-04-11T13:10:26.767Z,27.18
2023-04-11T13:12:58.589Z,27.13
2023-04-11T13:15:27.118Z,27.08
2023-04-11T13:17:55.232Z,27.12
2023-04-11T13:20:23.388Z,26.98
2023-04-11T13:22:51.969Z,27.10
2023-04-11T13:25:20.070Z,27.11
2023-04-11T13:27:49.572Z,27.10
2023-04-11T13:30:17.612Z,27.11
2023-04-11T13:32:45.632Z,27.10
2023-04-11T13:35:13.724Z,27.10
2023-04-11T13:37:41.921Z,27.09
2023-04-11T13:40:12.378Z,26.98
2023-04-11T13:42:40.394Z,27.09
2023-04-11T13:45:10.637Z,27.08
2023-04-11T13:47:39.198Z,27.08
2023-04-11T13:50:09.207Z,27.07
2023-04-11T13:52:37.505Z,27.06
2023-04-11T13:55:06.421Z,27.06
2023-04-11T13:57:34.453Z,27.00
2023-04-11T14:00:04.967Z,27.02
2023-04-11T14:02:34.555Z,26.98
2023-04-11T14:05:02.661Z,27.01
2023-04-11T14:07:30.641Z,26.89
2023-04-11T14:09:58.580Z,26.99
2023-04-11T14:12:27.493Z,26.99
2023-04-11T14:14:55.736Z,26.95
2023-04-11T14:17:23.809Z,26.92
2023-04-11T14:19:53.243Z,26.92
2023-04-11T14:22:21.407Z,26.89
2023-04-11T14:24:49.266Z,26.90
2023-04-11T14:27:17.298Z,26.91
2023-04-11T14:29:46.259Z,26.91
2023-04-11T14:32:14.350Z,26.92
2023-04-11T14:34:42.355Z,26.86
2023-04-11T14:37:11.884Z,26.93
2023-04-11T14:39:39.939Z,26.82
2023-04-11T14:42:09.096Z,26.90
2023-04-11T14:44:39.261Z,26.77
2023-04-11T14:47:07.370Z,26.86
2023-04-11T14:49:35.468Z,26.95
2023-04-11T14:52:03.556Z,26.93
2023-04-11T14:54:32.769Z,26.95
2023-04-11T14:57:00.726Z,26.95
2023-04-11T14:59:28.709Z,26.92
2023-04-11T15:01:57.237Z,26.94
2023-04-11T15:04:25.309Z,26.92
2023-04-11T15:06:53.506Z,26.91
2023-04-11T15:09:22.038Z,26.89
2023-04-11T15:11:51.613Z,26.90
2023-04-11T15:14:20.065Z,26.85
2023-04-11T15:16:48.095Z,26.85
2023-04-11T15:19:16.519Z,26.85
2023-04-11T15:21:46.204Z,26.83
2023-04-11T15:24:14.302Z,26.81
2023-04-11T15:26:44.657Z,26.44
2023-04-11T15:29:16.755Z,26.78
2023-04-11T15:31:44.786Z,26.77
2023-04-11T15:34:14.038Z,26.73
2023-04-11T15:36:43.022Z,26.69
2023-04-11T15:39:11.047Z,26.71
2023-04-11T15:41:39.016Z,26.70
2023-04-11T15:44:06.959Z,26.64
2023-04-11T15:46:36.355Z,26.66
2023-04-11T15:49:04.468Z,26.46
2023-04-11T15:51:32.409Z,26.62
2023-04-11T15:54:00.465Z,26.61
2023-04-11T15:56:28.627Z,26.59
2023-04-11T15:58:56.620Z,26.59
2023-04-11T16:01:25.201Z,26.58
2023-04-11T16:03:55.211Z,26.55
2023-04-11T16:06:23.428Z,26.53
2023-04-11T16:08:51.747Z,26.50
2023-04-11T16:11:19.797Z,26.49
2023-04-11T16:13:47.747Z,26.48
2023-04-11T16:16:15.898Z,26.47
2023-04-11T16:18:43.920Z,26.42
2023-04-11T16:21:16.631Z,26.45
2023-04-11T16:23:44.735Z,26.42
2023-04-11T16:26:12.859Z,26.41
2023-04-11T16:28:40.989Z,26.40
2023-04-11T16:31:09.352Z,26.38
2023-04-11T16:33:37.497Z,26.35
2023-04-11T16:36:06.255Z,26.30
2023-04-11T16:38:35.701Z,26.33
2023-04-11T16:41:03.607Z,26.31
2023-04-11T16:43:31.574Z,26.29
2023-04-11T16:45:59.510Z,26.28
2023-04-11T16:48:27.661Z,26.27
2023-04-11T16:50:55.692Z,26.27
2023-04-11T16:53:23.711Z,26.28
2023-04-11T16:55:53.621Z,26.27
2023-04-11T16:58:21.687Z,26.27
2023-04-11T17:00:51.179Z,26.28
2023-04-11T17:03:19.823Z,26.23
2023-04-11T17:05:47.939Z,26.26
2023-04-11T17:08:15.948Z,26.26
2023-04-11T17:10:44.181Z,26.24
2023-04-11T17:13:14.805Z,26.24
2023-04-11T17:15:42.841Z,26.22
2023-04-11T17:18:11.006Z,26.19
2023-04-11T17:20:39.017Z,25.70
2023-04-11T17:23:07.417Z,26.16
2023-04-11T17:25:36.309Z,26.06
2023-04-11T17:28:04.317Z,26.13
2023-04-11T17:30:33.876Z,26.11
2023-04-11T17:33:01.988Z,26.10
2023-04-11T17:35:30.101Z,26.06
2023-04-11T17:37:57.974Z,26.03
2023-04-11T17:40:25.972Z,26.02
2023-04-11T17:42:53.886Z,26.00
2023-04-11T17:45:22.398Z,25.95
2023-04-11T17:47:51.835Z,25.98
2023-04-11T17:50:20.098Z,25.95
2023-04-11T17:52:48.416Z,25.92
2023-04-11T17:55:18.160Z,25.91
2023-04-11T17:57:48.732Z,25.89
2023-04-11T18:00:19.431Z,25.85
2023-04-11T18:02:49.523Z,25.86
2023-04-11T18:05:24.601Z,25.85
2023-04-11T18:10:23.228Z,25.80
2023-04-11T18:12:52.791Z,25.76
2023-04-11T18:15:21.334Z,25.78
2023-04-11T18:17:49.872Z,25.74
2023-04-11T18:20:19.532Z,25.70
2023-04-11T18:22:49.539Z,25.75
2023-04-11T18:25:17.619Z,25.63
2023-04-11T18:27:45.629Z,25.72
2023-04-11T18:30:15.325Z,25.56
2023-04-11T18:32:48.959Z,25.71
2023-04-11T18:35:19.821Z,25.74
2023-04-11T18:37:47.901Z,25.74
2023-04-11T18:40:17.111Z,25.70
2023-04-11T18:42:47.874Z,25.73
2023-04-11T18:45:17.908Z,25.72
2023-04-11T18:47:46.520Z,25.71
2023-04-11T18:50:14.870Z,25.71
2023-04-11T18:52:45.481Z,25.71
2023-04-11T18:55:15.536Z,25.71
2023-04-11T18:57:46.559Z,25.68
2023-04-11T19:00:19.280Z,25.71
2023-04-11T19:02:50.232Z,25.70
2023-04-11T19:05:19.107Z,25.70
2023-04-11T19:07:48.790Z,25.72
2023-04-11T19:10:20.292Z,25.70
2023-04-11T19:12:48.369Z,25.73
2023-04-11T19:15:16.453Z,25.75
2023-04-11T19:17:44.462Z,25.76
2023-04-11T19:20:13.705Z,25.77
2023-04-11T19:22:42.001Z,25.77
2023-04-11T19:25:12.720Z,25.79
2023-04-11T19:27:42.590Z,25.76
2023-04-11T19:30:13.578Z,25.77
2023-04-11T19:32:43.782Z,25.75
2023-04-11T19:35:12.624Z,25.75
2023-04-11T19:37:40.997Z,25.55
2023-04-11T19:40:11.013Z,25.73
2023-04-11T19:42:40.956Z,25.73
2023-04-11T19:45:10.481Z,25.63
2023-04-11T19:47:39.901Z,25.73
2023-04-11T19:50:11.833Z,25.72
2023-04-11T19:52:40.336Z,25.68
2023-04-11T19:55:10.118Z,25.72
2023-04-11T19:57:38.918Z,25.56
2023-04-11T20:00:12.406Z,25.70
2023-04-11T20:02:44.523Z,25.70
2023-04-11T20:05:13.716Z,25.47
2023-04-11T20:07:42.483Z,25.69
2023-04-11T20:10:11.590Z,25.69
2023-04-11T20:12:39.580Z,25.69
2023-04-11T20:15:11.717Z,25.69
2023-04-11T20:17:39.856Z,25.69
2023-04-11T20:20:11.302Z,25.67
2023-04-11T20:22:40.599Z,25.68
2023-04-11T20:25:11.402Z,25.67
2023-04-11T20:27:39.944Z,25.64
2023-04-11T20:30:10.862Z,25.50
2023-04-11T20:32:39.243Z,25.62
2023-04-11T20:35:12.060Z,25.61
2023-04-11T20:37:41.067Z,25.62
2023-04-11T20:40:10.262Z,25.62
2023-04-11T20:42:42.408Z,25.56
2023-04-11T20:45:15.617Z,25.63
2023-04-11T20:47:45.986Z,25.64
2023-04-11T20:50:15.785Z,25.64
2023-04-11T20:52:45.716Z,25.62
2023-04-11T20:55:15.726Z,25.62
2023-04-11T20:57:44.690Z,25.62
2023-04-11T21:00:16.992Z,25.63
2023-04-11T21:02:46.794Z,25.62
2023-04-11T21:05:15.336Z,25.60
2023-04-11T21:07:43.455Z,25.57
2023-04-11T21:10:12.392Z,25.55
2023-04-11T21:12:40.852Z,25.54
2023-04-11T21:15:10.342Z,25.45
2023-04-11T21:17:40.468Z,25.34
2023-04-11T21:20:17.780Z,25.47
2023-04-11T21:22:46.631Z,25.50
2023-04-11T21:25:14.840Z,25.49
2023-04-11T21:27:42.903Z,25.44
2023-04-11T21:30:12.212Z,25.45
2023-04-11T21:32:42.106Z,25.45
2023-04-11T21:35:11.814Z,25.46
2023-04-11T21:37:40.071Z,25.46
2023-04-11T21:40:09.083Z,25.42
2023-04-11T21:42:37.095Z,25.47
2023-04-11T21:45:05.540Z,25.30
2023-04-11T21:47:33.504Z,25.46
2023-04-11T21:50:03.122Z,25.46
2023-04-11T21:52:31.020Z,25.45
2023-04-11T21:54:59.071Z,25.46
2023-04-11T21:57:27.074Z,25.41
2023-04-11T21:59:54.964Z,25.44
2023-04-11T22:02:23.302Z,25.45
2023-04-11T22:05:05.028Z,25.45
2023-04-11T22:07:39.493Z,25.46
2023-04-11T22:10:11.627Z,25.49
2023-04-11T22:12:40.266Z,25.51
2023-04-11T22:15:12.480Z,25.51
2023-04-11T22:17:43.623Z,25.52
2023-04-11T22:20:12.711Z,25.55
2023-04-11T22:22:42.098Z,25.58
2023-04-11T22:25:11.514Z,25.56
2023-04-11T22:27:39.524Z,25.62
2023-04-11T22:30:08.789Z,25.65
2023-04-11T22:32:37.100Z,25.65
2023-04-11T22:35:06.740Z,25.66
2023-04-11T22:37:34.765Z,25.67
2023-04-11T22:40:06.128Z,25.68
2023-04-11T22:42:34.121Z,25.68
2023-04-11T22:45:02.011Z,25.69
2023-04-11T22:47:32.514Z,25.70
2023-04-11T22:50:00.502Z,25.71
2023-04-11T22:52:30.327Z,25.71
2023-04-11T22:54:58.372Z,25.70
2023-04-11T22:57:27.794Z,25.72
2023-04-11T22:59:55.760Z,25.73
2023-04-11T23:02:25.282Z,25.73
2023-04-11T23:04:53.684Z,25.73
2023-04-11T23:07:22.363Z,25.74
2023-04-11T23:09:52.628Z,25.73
2023-04-11T23:12:20.979Z,25.75
2023-04-11T23:14:50.421Z,25.74
2023-04-11T23:17:18.418Z,25.75
2023-04-11T23:19:47.106Z,25.77
2023-04-11T23:22:15.122Z,25.79
2023-04-11T23:24:43.191Z,25.78
2023-04-11T23:27:11.658Z,25.77
2023-04-11T23:29:39.881Z,25.75
2023-04-11T23:32:09.358Z,25.73
2023-04-11T23:34:37.228Z,25.70
2023-04-11T23:37:05.253Z,25.64
2023-04-11T23:39:33.168Z,25.68
2023-04-11T23:42:01.095Z,25.66
2023-04-11T23:44:29.113Z,25.66
2023-04-11T23:46:57.083Z,25.66
2023-04-11T23:49:26.707Z,25.64
2023-04-11T23:51:54.589Z,25.65
2023-04-11T23:54:22.672Z,25.64
2023-04-11T23:56:50.849Z,25.64
2023-04-11T23:59:18.773Z,25.64
